Time;durP1;ratioP1;P1;durP2;ratioP2;P2;SDS_P1;SDS_P2;PMS_P1;PMS_P2;Temp;Humidity;BMP_temperature;BMP_pressure;BME280_temperature;BME280_humidity;BME280_pressure;Samples;Min_cycle;Max_cycle;Signal;HPM_P1;HPM_P2
2023/03/14 00:02:09;;;;;;;28.65;18.27;;;;;;;11.69;100.00;99703.31;6272476;23;20012;-88
2023/03/14 00:04:35;;;;;;;31.63;17.75;;;;;;;11.76;100.00;99726.28;6269372;23;20114;-86
2023/03/14 00:07:04;;;;;;;28.35;15.90;;;;;;;11.82;100.00;99720.22;6269170;23;20004;-84
2023/03/14 00:09:29;;;;;;;25.88;14.57;;;;;;;11.80;100.00;99693.00;6268342;23;20489;-85
2023/03/14 00:11:58;;;;;;;30.52;14.70;;;;;;;11.77;100.00;99682.78;6265481;23;20011;-86
2023/03/14 00:14:24;;;;;;;23.60;14.07;;;;;;;11.82;100.00;99706.94;6239547;23;20004;-85
2023/03/14 00:16:49;;;;;;;24.88;12.60;;;;;;;11.72;100.00;99677.22;6266326;23;20114;-85
2023/03/14 00:19:15;;;;;;;25.25;13.15;;;;;;;11.82;100.00;99677.75;6269055;23;20047;-85
2023/03/14 00:21:41;;;;;;;29.67;13.23;;;;;;;11.84;100.00;99673.03;6267865;23;20004;-84
2023/03/14 00:24:09;;;;;;;21.55;12.23;;;;;;;11.85;100.00;99693.28;6242100;23;20011;-85
2023/03/14 00:26:34;;;;;;;19.48;11.23;;;;;;;11.75;100.00;99671.53;6241204;23;20012;-86
2023/03/14 00:29:00;;;;;;;18.95;11.77;;;;;;;11.73;100.00;99668.25;6266540;23;20134;-86
2023/03/14 00:31:26;;;;;;;19.48;10.95;;;;;;;11.78;100.00;99652.56;6267907;23;20008;-86
2023/03/14 00:33:53;;;;;;;22.05;11.38;;;;;;;11.65;100.00;99647.13;6238902;23;20008;-86
2023/03/14 00:36:20;;;;;;;25.60;10.02;;;;;;;11.73;100.00;99647.00;6265980;23;20012;-85
2023/03/14 00:38:48;;;;;;;19.92;10.18;;;;;;;11.79;100.00;99640.97;6213359;23;20008;-86
2023/03/14 00:41:22;;;;;;;33.13;10.82;;;;;;;11.76;100.00;99641.34;6265938;23;20019;-84
2023/03/14 00:43:48;;;;;;;22.42;9.70;;;;;;;11.68;100.00;99630.81;6266193;23;20043;-84
2023/03/14 00:46:13;;;;;;;15.68;9.77;;;;;;;11.67;100.00;99647.75;6267626;23;20004;-85
2023/03/14 00:48:39;;;;;;;24.30;10.63;;;;;;;11.66;100.00;99603.66;6267976;23;20493;-85
2023/03/14 00:51:06;;;;;;;21.65;10.65;;;;;;;11.63;100.00;99598.72;6267730;23;20012;-86
2023/03/14 00:53:35;;;;;;;21.33;10.35;;;;;;;11.55;100.00;99609.47;6239937;23;20474;-85
2023/03/14 00:56:04;;;;;;;22.42;9.90;;;;;;;11.57;100.00;99631.31;6239622;23;20154;-84
2023/03/14 00:58:29;;;;;;;18.42;10.88;;;;;;;11.58;100.00;99622.34;6240211;23;20032;-84
2023/03/14 01:00:55;;;;;;;24.60;11.77;;;;;;;11.58;100.00;99637.44;6242012;23;20050;-86
2023/03/14 01:03:21;;;;;;;26.80;12.60;;;;;;;11.49;100.00;99644.72;6272185;23;20019;-87
2023/03/14 01:05:48;;;;;;;25.90;12.55;;;;;;;11.31;100.00;99646.97;6246086;23;20031;-86
2023/03/14 01:08:14;;;;;;;27.25;11.52;;;;;;;11.42;100.00;99627.91;6242182;23;20076;-88
2023/03/14 01:10:41;;;;;;;31.10;12.90;;;;;;;11.33;100.00;99635.16;6258018;23;20020;-87
2023/03/14 01:13:08;;;;;;;22.90;12.32;;;;;;;11.27;100.00;99635.09;6255333;23;20043;-88
2023/03/14 01:15:36;;;;;;;30.48;13.50;;;;;;;11.29;100.00;99617.16;6234538;23;20391;-87
2023/03/14 01:18:02;;;;;;;31.88;12.80;;;;;;;11.26;100.00;99606.94;6269126;23;19996;-88
2023/03/14 01:20:27;;;;;;;24.08;13.57;;;;;;;11.24;100.00;99596.50;6270012;23;20011;-86
2023/03/14 01:22:53;;;;;;;24.80;13.45;;;;;;;11.25;100.00;99589.38;6243762;23;20016;-85
2023/03/14 01:25:18;;;;;;;25.17;13.68;;;;;;;11.16;100.00;99577.25;6270857;23;20004;-87
2023/03/14 01:27:44;;;;;;;21.27;12.93;;;;;;;11.18;100.00;99561.97;6270170;23;20015;-83
2023/03/14 01:30:12;;;;;;;23.33;13.43;;;;;;;11.45;100.00;99542.63;6244023;23;20038;-84
2023/03/14 01:32:38;;;;;;;27.63;13.50;;;;;;;11.37;100.00;99551.53;6242990;23;20019;-85
2023/03/14 01:35:04;;;;;;;22.10;13.40;;;;;;;11.27;100.00;99560.81;6267050;23;20034;-86
2023/03/14 01:37:30;;;;;;;22.48;14.25;;;;;;;11.13;100.00;99540.50;6240947;23;20004;-83
2023/03/14 01:39:56;;;;;;;29.67;16.63;;;;;;;11.41;100.00;99546.66;6241183;23;20031;-85
2023/03/14 01:42:22;;;;;;;31.35;16.27;;;;;;;11.33;100.00;99533.56;6241323;23;19988;-84
2023/03/14 01:44:48;;;;;;;27.98;16.13;;;;;;;11.31;100.00;99540.88;6241711;23;20043;-86
2023/03/14 01:47:14;;;;;;;33.50;16.85;;;;;;;11.21;100.00;99541.19;6241260;23;20390;-86
2023/03/14 01:49:39;;;;;;;32.35;17.15;;;;;;;11.10;100.00;99517.81;6241596;23;20215;-86
2023/03/14 01:52:13;;;;;;;28.95;17.05;;;;;;;11.04;100.00;99500.03;6266611;23;20012;-86
2023/03/14 01:55:06;;;;;;;34.35;18.50;;;;;;;10.94;100.00;99486.25;6241061;23;20105;-87
2023/03/14 01:57:33;;;;;;;;;;;;;;;10.69;100.00;99477.88;6253048;23;20075;-86
2023/03/14 02:00:12;;;;;;;29.00;17.50;;;;;;;10.62;100.00;99476.97;6240356;23;19915;-87
2023/03/14 02:02:47;;;;;;;25.52;15.38;;;;;;;10.61;100.00;99471.84;6267920;23;20020;-85
2023/03/14 02:05:18;;;;;;;31.75;16.77;;;;;;;10.56;100.00;99469.78;6242596;23;20111;-86
2023/03/14 02:07:55;;;;;;;28.38;17.38;;;;;;;10.66;100.00;99445.63;6242788;23;19992;-87
2023/03/14 02:10:28;;;;;;;36.25;18.08;;;;;;;10.57;100.00;99449.41;6241486;23;20098;-87
2023/03/14 02:12:56;;;;;;;35.75;18.80;;;;;;;10.46;100.00;99445.44;6243601;23;20035;-85
2023/03/14 02:15:31;;;;;;;35.92;19.23;;;;;;;10.36;100.00;99426.38;6243547;23;20008;-90
2023/03/14 02:18:16;;;;;;;35.15;17.60;;;;;;;10.33;100.00;99421.44;6245625;22;20016;-86
2023/03/14 02:21:01;;;;;;;38.08;18.45;;;;;;;10.37;100.00;99430.66;6272934;22;20015;-89
2023/03/14 02:23:33;;;;;;;36.47;18.98;;;;;;;10.39;100.00;99428.63;6246156;23;20020;-87
2023/03/14 02:26:08;;;;;;;34.97;18.40;;;;;;;10.50;100.00;99414.91;6271757;23;20004;-85
2023/03/14 02:28:34;;;;;;;34.10;17.75;;;;;;;10.49;100.00;99421.22;6271819;23;20000;-85
2023/03/14 02:31:01;;;;;;;34.42;19.10;;;;;;;10.52;100.00;99422.66;6245263;23;20019;-87
2023/03/14 02:33:32;;;;;;;35.25;19.55;;;;;;;10.29;100.00;99407.75;6241760;23;20028;-87
2023/03/14 02:36:00;;;;;;;35.55;18.85;;;;;;;10.29;100.00;99420.19;6270346;23;20055;-87
2023/03/14 02:38:55;;;;;;;36.72;20.17;;;;;;;10.23;100.00;99418.28;6217577;23;20030;-86
2023/03/14 02:41:22;;;;;;;35.00;20.05;;;;;;;10.25;100.00;99425.03;6242237;22;20036;-88
2023/03/14 02:43:57;;;;;;;35.72;20.92;;;;;;;10.22;100.00;99425.41;6243176;23;20100;-84
2023/03/14 02:46:27;;;;;;;46.58;21.00;;;;;;;10.12;100.00;99405.47;6244703;23;20001;-87
2023/03/14 02:49:06;;;;;;;44.03;22.25;;;;;;;10.13;100.00;99412.44;6271784;22;20020;-87
2023/03/14 02:51:32;;;;;;;34.10;21.88;;;;;;;10.05;100.00;99412.53;6268546;23;20018;-90
2023/03/14 02:54:01;;;;;;;41.53;22.70;;;;;;;10.06;100.00;99395.66;6239881;23;20032;-88
2023/03/14 02:56:26;;;;;;;39.45;22.17;;;;;;;10.03;100.00;99380.13;6201941;23;20008;-89
2023/03/14 02:58:52;;;;;;;46.85;23.35;;;;;;;10.01;100.00;99363.63;6222784;23;20031;-88
2023/03/14 03:01:28;;;;;;;35.05;19.67;;;;;;;10.07;100.00;99334.59;6222541;23;20012;-86
2023/03/14 03:03:54;;;;;;;34.95;19.92;;;;;;;9.98;100.00;99335.69;6224585;23;20008;-88
2023/03/14 03:06:19;;;;;;;41.00;20.98;;;;;;;9.98;100.00;99335.69;6252898;23;20035;-85
2023/03/14 03:08:45;;;;;;;34.38;22.25;;;;;;;9.88;100.00;99312.19;6250570;23;20016;-89
2023/03/14 03:11:10;;;;;;;38.95;23.13;;;;;;;9.84;100.00;99287.09;6225504;23;20351;-89
2023/03/14 03:13:37;;;;;;;38.28;23.35;;;;;;;9.88;100.00;99286.75;6199585;23;20016;-89
2023/03/14 03:16:04;;;;;;;38.38;23.10;;;;;;;9.90;100.00;99295.28;6224203;23;20008;-89
2023/03/14 03:18:33;;;;;;;36.40;22.17;;;;;;;9.95;100.00;99282.31;6224041;23;20062;-89
2023/03/14 03:21:03;;;;;;;40.20;22.40;;;;;;;9.92;100.00;99272.09;6198552;23;20456;-87
2023/03/14 03:23:29;;;;;;;37.70;22.15;;;;;;;9.92;100.00;99283.50;6223416;23;20040;-87
2023/03/14 03:25:56;;;;;;;41.67;24.17;;;;;;;9.88;100.00;99260.28;6249861;23;20000;-89
2023/03/14 03:28:22;;;;;;;49.13;26.90;;;;;;;9.70;100.00;99200.66;6222386;23;20118;-87
2023/03/14 03:30:48;;;;;;;53.72;27.98;;;;;;;9.60;100.00;99205.44;6224058;23;20108;-89
2023/03/14 03:33:14;;;;;;;46.13;29.02;;;;;;;9.51;100.00;99188.03;6223736;23;20019;-88
2023/03/14 03:35:50;;;;;;;64.18;32.53;;;;;;;9.48;100.00;99169.91;6222792;23;21081;-87
2023/03/14 03:38:22;;;;;;;53.35;33.10;;;;;;;9.46;100.00;99177.22;6221999;23;20037;-87
2023/03/14 03:40:50;;;;;;;54.38;35.80;;;;;;;9.43;100.00;99235.78;6223617;23;20008;-87
2023/03/14 03:43:16;;;;;;;59.60;37.53;;;;;;;9.56;100.00;99307.34;6224850;23;20008;-86
2023/03/14 03:45:44;;;;;;;62.63;38.47;;;;;;;9.48;100.00;99351.59;6199391;23;20035;-88
2023/03/14 03:48:09;;;;;;;61.92;38.67;;;;;;;9.63;100.00;99381.47;6223445;23;20015;-87
2023/03/14 03:50:35;;;;;;;62.60;39.17;;;;;;;9.71;100.00;99355.72;6222597;23;20015;-89
2023/03/14 03:53:00;;;;;;;65.95;39.10;;;;;;;9.69;100.00;99327.81;6223529;23;20039;-88
2023/03/14 03:55:27;;;;;;;57.03;37.47;;;;;;;9.48;100.00;99309.28;6250297;23;20034;-88
2023/03/14 03:57:53;;;;;;;55.95;38.13;;;;;;;9.45;100.00;99302.50;6223620;23;20016;-87
2023/03/14 04:00:19;;;;;;;69.10;41.10;;;;;;;9.32;100.00;99302.34;6249856;23;20015;-86
2023/03/14 04:02:46;;;;;;;66.32;43.10;;;;;;;9.30;100.00;99331.63;6222355;23;20000;-87
2023/03/14 04:05:14;;;;;;;68.97;41.75;;;;;;;9.28;100.00;99327.50;6224466;23;20008;-88
2023/03/14 04:07:46;;;;;;;47.50;30.88;;;;;;;9.34;100.00;99337.38;6224305;23;20008;-88
2023/03/14 04:10:16;;;;;;;70.03;41.00;;;;;;;9.44;100.00;99306.19;6223801;23;20012;-89
2023/03/14 04:12:50;;;;;;;65.60;41.28;;;;;;;9.41;100.00;99274.81;6223445;23;20328;-89
2023/03/14 04:15:19;;;;;;;65.30;41.38;;;;;;;9.25;100.00;99257.31;6224110;23;20012;-88
2023/03/14 04:17:49;;;;;;;62.97;40.17;;;;;;;9.24;100.00;99257.50;6224149;23;20046;-86
2023/03/14 04:20:15;;;;;;;67.25;38.72;;;;;;;9.22;100.00;99201.34;6250072;23;20086;-87
2023/03/14 04:22:41;;;;;;;61.25;38.40;;;;;;;9.13;100.00;99186.59;6250252;23;20036;-87
2023/03/14 04:25:07;;;;;;;62.17;39.67;;;;;;;9.10;100.00;99171.13;6223946;23;20016;-87
2023/03/14 04:27:37;;;;;;;71.13;41.65;;;;;;;9.17;100.00;99172.03;6250496;23;20004;-89
2023/03/14 04:30:08;;;;;;;73.43;42.80;;;;;;;9.13;100.00;99144.31;6223900;23;20055;-90
2023/03/14 04:32:45;;;;;;;68.35;40.38;;;;;;;9.22;100.00;99164.34;6223046;23;20051;-86
2023/03/14 04:35:13;;;;;;;69.47;40.55;;;;;;;9.26;100.00;99182.28;6223737;23;20015;-88
2023/03/14 04:37:41;;;;;;;64.55;39.30;;;;;;;9.12;100.00;99169.09;6250177;23;20012;-88
2023/03/14 04:40:08;;;;;;;65.20;39.65;;;;;;;9.21;100.00;99171.44;6223150;23;20424;-89
2023/03/14 04:42:34;;;;;;;63.40;39.97;;;;;;;9.11;100.00;99193.91;6223378;23;20000;-87
2023/03/14 04:45:00;;;;;;;64.93;40.47;;;;;;;9.20;100.00;99179.56;6229989;23;20039;-89
2023/03/14 04:47:28;;;;;;;64.10;39.90;;;;;;;9.13;100.00;99166.28;6230246;23;20005;-88
2023/03/14 04:49:54;;;;;;;66.22;41.13;;;;;;;9.11;100.00;99162.19;6223228;23;20012;-88
2023/03/14 04:52:21;;;;;;;66.85;41.05;;;;;;;9.15;100.00;99163.44;6223204;23;20098;-88
2023/03/14 04:54:47;;;;;;;66.45;41.67;;;;;;;9.24;100.00;99141.19;6223280;23;20012;-88
2023/03/14 04:57:12;;;;;;;68.93;43.78;;;;;;;9.28;100.00;99168.88;6223409;23;20500;-85
2023/03/14 04:59:39;;;;;;;73.38;43.65;;;;;;;9.33;100.00;99177.06;6222472;23;20012;-89
2023/03/14 05:02:30;;;;;;;75.65;41.72;;;;;;;9.31;100.00;99179.09;6215339;23;20383;-86
2023/03/14 05:05:10;;;;;;;64.90;40.60;;;;;;;9.52;100.00;99221.41;6221420;23;20012;-85
2023/03/14 05:07:51;;;;;;;63.58;41.53;;;;;;;9.40;100.00;99245.91;6220692;23;20091;-86
2023/03/14 05:10:42;;;;;;;77.85;43.38;;;;;;;9.45;100.00;99270.78;6213701;23;20020;-83
2023/03/14 05:13:44;;;;;;;67.80;43.47;;;;;;;9.44;100.00;99253.28;6227298;23;20016;-85
2023/03/14 05:16:35;;;;;;;76.80;45.78;;;;;;;9.43;100.00;99251.63;6202289;23;20016;-86
2023/03/14 05:19:11;;;;;;;82.55;47.85;;;;;;;9.28;100.00;99270.16;6222358;23;20038;-84
2023/03/14 05:21:55;;;;;;;84.05;48.28;;;;;;;9.47;100.00;99289.09;6249056;23;20027;-85
2023/03/14 05:24:40;;;;;;;77.10;50.05;;;;;;;9.42;100.00;99317.91;6248062;23;20016;-85
2023/03/14 05:27:26;;;;;;;78.50;50.83;;;;;;;9.45;100.00;99305.16;6202077;23;20016;-84
2023/03/14 05:30:04;;;;;;;88.88;51.20;;;;;;;9.49;100.00;99314.34;6221215;23;20018;-86
2023/03/14 05:32:48;;;;;;;83.35;50.13;;;;;;;9.44;100.00;99297.41;6248037;23;20086;-86
2023/03/14 05:35:37;;;;;;;84.78;50.92;;;;;;;9.53;100.00;99305.06;6235244;23;20020;-85
2023/03/14 05:38:49;;;;;;;80.50;49.75;;;;;;;9.54;100.00;99303.25;6205168;23;20035;-86
2023/03/14 05:41:35;;;;;;;86.13;51.03;;;;;;;9.47;100.00;99289.94;6220846;23;20016;-86
2023/03/14 05:44:21;;;;;;;81.93;51.72;;;;;;;9.53;100.00;99281.25;6220740;23;20095;-88
2023/03/14 05:47:05;;;;;;;83.47;51.95;;;;;;;9.56;100.00;99266.84;6249786;23;20047;-86
2023/03/14 05:49:49;;;;;;;75.40;49.80;;;;;;;9.62;100.00;99261.63;6250740;23;20031;-85
2023/03/14 05:52:17;;;;;;;66.82;43.88;;;;;;;9.75;100.00;99263.59;6250259;23;20089;-86
2023/03/14 05:55:01;;;;;;;52.58;37.67;;;;;;;9.77;100.00;99251.81;6249109;23;20015;-85
2023/03/14 05:57:45;;;;;;;52.40;35.17;;;;;;;9.86;100.00;99263.91;6226169;23;20051;-85
2023/03/14 06:00:22;;;;;;;61.97;35.03;;;;;;;9.92;100.00;99245.63;6224497;23;20012;-86
2023/03/14 06:03:08;;;;;;;53.72;34.40;;;;;;;10.03;100.00;99234.56;6226946;23;20023;-86
2023/03/14 06:05:41;;;;;;;55.13;34.83;;;;;;;10.14;100.00;99244.69;6197223;23;20344;-87
2023/03/14 06:08:06;;;;;;;53.55;32.50;;;;;;;10.28;100.00;99225.22;6248588;23;20019;-88
2023/03/14 06:10:32;;;;;;;50.20;32.75;;;;;;;10.29;100.00;99232.16;6223883;23;20008;-88
2023/03/14 06:12:58;;;;;;;51.55;34.63;;;;;;;10.20;100.00;99230.66;6196544;23;20015;-87
2023/03/14 06:15:27;;;;;;;51.70;34.70;;;;;;;10.10;100.00;99224.84;6199344;23;20004;-92
2023/03/14 06:17:55;;;;;;;53.80;35.97;;;;;;;10.04;100.00;99222.97;6225942;23;20044;-92
2023/03/14 06:20:35;;;;;;;54.00;35.13;;;;;;;10.08;100.00;99213.63;6227187;23;20088;-86
2023/03/14 06:23:01;;;;;;;52.20;35.63;;;;;;;10.12;100.00;99215.69;6197806;23;20043;-84
2023/03/14 06:25:29;;;;;;;54.85;36.47;;;;;;;10.05;100.00;99214.00;6223330;23;20355;-91
2023/03/14 06:27:55;;;;;;;57.95;38.47;;;;;;;10.01;100.00;99191.59;6252507;23;20004;-88
2023/03/14 06:30:21;;;;;;;53.72;36.22;;;;;;;10.02;100.00;99179.97;6202293;23;20004;-90
2023/03/14 06:32:47;;;;;;;52.42;33.25;;;;;;;10.16;100.00;99173.81;6224276;23;20066;-89
2023/03/14 06:35:14;;;;;;;50.78;34.58;;;;;;;10.11;100.00;99166.41;6196066;23;20020;-89
2023/03/14 06:37:42;;;;;;;53.72;35.00;;;;;;;10.10;100.00;99159.50;6225444;23;20093;-90
2023/03/14 06:40:10;;;;;;;58.28;38.45;;;;;;;10.06;100.00;99160.06;6225215;23;20012;-91
2023/03/14 06:42:50;;;;;;;61.42;37.67;;;;;;;10.00;100.00;99161.66;6222757;23;20420;-88
2023/03/14 06:45:17;;;;;;;58.05;37.28;;;;;;;10.02;100.00;99153.50;6198132;23;20016;-89
2023/03/14 06:47:44;;;;;;;66.88;40.33;;;;;;;10.02;100.00;99151.69;6250842;23;20058;-89
2023/03/14 06:50:10;;;;;;;67.80;41.15;;;;;;;9.81;100.00;99155.16;6224376;23;20012;-88
2023/03/14 06:52:37;;;;;;;64.03;40.15;;;;;;;9.85;100.00;99156.44;6249096;23;20004;-86
2023/03/14 06:55:03;;;;;;;64.95;43.28;;;;;;;9.77;100.00;99148.63;6220414;23;20030;-87
2023/03/14 06:57:30;;;;;;;65.60;44.03;;;;;;;9.69;100.00;99161.97;6197794;23;20398;-87
2023/03/14 06:59:56;;;;;;;65.50;42.55;;;;;;;9.75;100.00;99155.09;6221807;23;20020;-86
2023/03/14 07:02:23;;;;;;;65.78;41.25;;;;;;;9.73;100.00;99147.38;6221916;23;20384;-88
2023/03/14 07:04:49;;;;;;;74.15;44.00;;;;;;;9.77;100.00;99155.75;6196967;23;20004;-88
2023/03/14 07:07:16;;;;;;;68.90;41.83;;;;;;;9.77;100.00;99153.09;6221018;23;20008;-89
2023/03/14 07:09:41;;;;;;;68.28;43.15;;;;;;;9.85;100.00;99140.56;6221548;23;20063;-89
2023/03/14 07:12:07;;;;;;;76.43;43.63;;;;;;;9.86;100.00;99144.03;6220145;23;20008;-84
2023/03/14 07:14:33;;;;;;;67.35;42.95;;;;;;;9.78;100.00;99144.97;6219179;23;20098;-85
2023/03/14 07:16:59;;;;;;;72.28;43.58;;;;;;;9.82;100.00;99140.94;6219423;23;20008;-86
2023/03/14 07:19:25;;;;;;;67.63;44.28;;;;;;;9.95;100.00;99149.97;6220219;23;20008;-87
2023/03/14 07:21:50;;;;;;;73.80;46.35;;;;;;;9.88;100.00;99140.16;6247907;23;20095;-90
2023/03/14 07:24:21;;;;;;;73.05;46.10;;;;;;;9.92;100.00;99143.25;6221789;23;20139;-86
2023/03/14 07:26:48;;;;;;;67.72;43.42;;;;;;;10.10;100.00;99148.09;6227380;23;20070;-86
2023/03/14 07:29:17;;;;;;;69.88;47.05;;;;;;;9.98;100.00;99144.31;6202688;23;20470;-87
2023/03/14 07:31:43;;;;;;;66.15;44.78;;;;;;;10.25;100.00;99148.81;6197474;23;20395;-89
2023/03/14 07:34:09;;;;;;;63.42;42.95;;;;;;;10.16;100.00;99149.97;6222747;23;20011;-88
2023/03/14 07:36:38;;;;;;;65.55;44.28;;;;;;;10.48;100.00;99151.19;6220687;23;20340;-88
2023/03/14 07:39:04;;;;;;;60.85;41.35;;;;;;;10.62;100.00;99147.63;6225163;23;20020;-90
2023/03/14 07:41:32;;;;;;;61.00;41.67;;;;;;;10.54;100.00;99151.25;6254027;23;20023;-86
2023/03/14 07:44:18;;;;;;;61.53;41.10;;;;;;;10.38;100.00;99154.19;6250317;23;20317;-87
2023/03/14 07:46:43;;;;;;;62.92;41.42;;;;;;;10.43;100.00;99148.34;6265793;23;20087;-85
2023/03/14 07:49:10;;;;;;;57.33;39.90;;;;;;;10.44;100.00;99148.13;6267460;23;20035;-87
2023/03/14 07:51:35;;;;;;;64.10;41.25;;;;;;;10.47;100.00;99146.94;6263706;23;20004;-86
2023/03/14 07:54:01;;;;;;;62.05;40.67;;;;;;;10.67;100.00;99161.13;6225561;23;20107;-90
2023/03/14 07:56:26;;;;;;;63.70;42.78;;;;;;;10.54;100.00;99147.81;6220821;23;20012;-86
2023/03/14 07:58:52;;;;;;;59.33;40.40;;;;;;;10.76;100.00;99159.94;6248504;23;20432;-87
2023/03/14 08:01:17;;;;;;;59.22;40.28;;;;;;;10.89;100.00;99168.78;6246633;23;20008;-90
2023/03/14 08:03:43;;;;;;;64.93;40.25;;;;;;;10.66;100.00;99165.59;6245222;23;20015;-89
2023/03/14 08:06:08;;;;;;;65.97;39.58;;;;;;;10.90;100.00;99183.63;6245960;23;20015;-90
2023/03/14 08:08:34;;;;;;;68.68;40.08;;;;;;;10.67;100.00;99172.50;6247943;23;20015;-91
2023/03/14 08:11:10;;;;;;;58.83;37.60;;;;;;;10.96;100.00;99167.97;6220824;23;20316;-89
2023/03/14 08:13:36;;;;;;;56.67;37.90;;;;;;;10.99;100.00;99181.66;6245963;23;20004;-89
2023/03/14 08:16:02;;;;;;;57.83;37.67;;;;;;;11.02;100.00;99177.78;6220776;23;20012;-88
2023/03/14 08:18:28;;;;;;;48.75;34.15;;;;;;;11.29;100.00;99190.97;6246289;23;20026;-87
2023/03/14 08:20:53;;;;;;;50.97;33.60;;;;;;;11.09;100.00;99189.25;6221260;23;20012;-88
2023/03/14 08:23:19;;;;;;;43.88;32.38;;;;;;;11.42;100.00;99195.47;6247836;23;20008;-91
2023/03/14 08:25:45;;;;;;;44.13;30.98;;;;;;;11.50;100.00;99192.63;6246649;23;20004;-88
2023/03/14 08:28:10;;;;;;;47.92;31.58;;;;;;;11.57;100.00;99201.44;6218813;23;20050;-89
2023/03/14 08:30:36;;;;;;;47.45;30.77;;;;;;;11.24;100.00;99196.03;6218456;23;20083;-89
2023/03/14 08:33:01;;;;;;;49.75;31.90;;;;;;;11.22;100.00;99202.56;6246530;23;20008;-88
2023/03/14 08:35:27;;;;;;;50.25;30.15;;;;;;;11.03;100.00;99198.00;6247029;23;20431;-88
2023/03/14 08:37:53;;;;;;;48.67;32.70;;;;;;;11.00;100.00;99203.69;6220035;23;20008;-86
2023/03/14 08:40:19;;;;;;;47.55;32.67;;;;;;;11.20;100.00;99210.69;6247709;23;20019;-89
2023/03/14 08:42:45;;;;;;;57.33;34.22;;;;;;;11.15;100.00;99205.19;6220790;23;20003;-90
2023/03/14 08:45:13;;;;;;;56.72;36.08;;;;;;;11.11;100.00;99205.75;6246893;23;20084;-86
2023/03/14 08:47:39;;;;;;;52.17;34.40;;;;;;;11.34;100.00;99207.06;6246460;23;20012;-87
2023/03/14 08:50:06;;;;;;;51.17;34.00;;;;;;;11.26;100.00;99203.78;6219350;23;20340;-86
2023/03/14 08:52:34;;;;;;;55.15;35.47;;;;;;;11.24;100.00;99208.47;6245945;23;20447;-89
2023/03/14 08:55:00;;;;;;;54.55;35.92;;;;;;;11.16;100.00;99213.94;6220998;23;20014;-88
2023/03/14 08:57:29;;;;;;;48.42;34.40;;;;;;;11.08;100.00;99203.50;6245941;23;20043;-86
2023/03/14 08:59:55;;;;;;;57.75;36.00;;;;;;;11.11;100.00;99222.50;6246537;23;20004;-86
2023/03/14 09:02:22;;;;;;;53.95;34.35;;;;;;;11.22;100.00;99223.75;6247162;23;20004;-89
2023/03/14 09:04:47;;;;;;;51.03;33.55;;;;;;;11.26;100.00;99219.72;6247163;23;20030;-88
2023/03/14 09:07:13;;;;;;;48.83;32.75;;;;;;;11.30;100.00;99226.25;6220455;23;20043;-87
2023/03/14 09:09:39;;;;;;;53.38;32.92;;;;;;;11.54;100.00;99228.38;6247886;23;20416;-88
2023/03/14 09:12:05;;;;;;;49.92;33.53;;;;;;;11.42;100.00;99229.97;6221434;23;20075;-87
2023/03/14 09:14:31;;;;;;;50.05;32.65;;;;;;;11.28;100.00;99241.53;6247024;23;20005;-88
2023/03/14 09:16:57;;;;;;;52.08;30.95;;;;;;;11.27;100.00;99232.75;6247200;23;20008;-87
2023/03/14 09:19:22;;;;;;;49.95;33.78;;;;;;;11.21;100.00;99238.84;6247153;23;20004;-86
2023/03/14 09:21:48;;;;;;;52.92;32.95;;;;;;;11.19;100.00;99230.28;6246829;23;20031;-87
2023/03/14 09:24:14;;;;;;;49.10;34.00;;;;;;;11.36;100.00;99249.34;6219622;23;20011;-86
2023/03/14 09:26:39;;;;;;;52.72;32.20;;;;;;;11.49;100.00;99249.38;6246701;23;20023;-87
2023/03/14 09:29:05;;;;;;;47.33;32.33;;;;;;;11.45;100.00;99255.28;6246568;23;20435;-87
2023/03/14 09:31:31;;;;;;;48.88;30.25;;;;;;;11.57;100.00;99254.50;6246067;23;20008;-88
2023/03/14 09:33:56;;;;;;;44.58;28.80;;;;;;;11.56;100.00;99271.47;6247778;23;20008;-89
2023/03/14 09:36:22;;;;;;;44.70;27.13;;;;;;;11.68;100.00;99261.88;6219928;23;20004;-87
2023/03/14 09:38:48;;;;;;;43.88;26.90;;;;;;;11.49;100.00;99256.53;6246222;23;20012;-87
2023/03/14 09:41:26;;;;;;;43.70;27.15;;;;;;;11.67;100.00;99262.06;6246240;23;20468;-87
2023/03/14 09:44:19;;;;;;;40.22;26.33;;;;;;;11.73;100.00;99261.34;6220149;23;20079;-88
2023/03/14 09:46:50;;;;;;;34.97;23.83;;;;;;;11.60;100.00;99248.78;6246513;23;20008;-92
2023/03/14 09:49:27;;;;;;;40.45;24.58;;;;;;;11.72;100.00;99254.38;6218980;23;20066;-86
2023/03/14 09:51:59;;;;;;;37.58;24.25;;;;;;;11.67;100.00;99249.63;6247644;23;20074;-86
2023/03/14 09:54:34;;;;;;;40.72;24.90;;;;;;;11.93;100.00;99258.72;6246165;23;20352;-86
2023/03/14 09:57:00;;;;;;;35.92;22.42;;;;;;;11.89;100.00;99259.13;6242930;23;20335;-87
2023/03/14 09:59:28;;;;;;;33.92;21.83;;;;;;;11.84;100.00;99255.41;6244877;23;20004;-86
2023/03/14 10:02:00;;;;;;;31.10;22.90;;;;;;;11.80;100.00;99256.84;6246294;23;20015;-85
2023/03/14 10:04:25;;;;;;;34.17;21.52;;;;;;;11.67;100.00;99248.81;6245490;23;20045;-87
2023/03/14 10:06:51;;;;;;;36.85;23.35;;;;;;;11.57;100.00;99249.19;6245904;23;20012;-86
2023/03/14 10:09:25;;;;;;;34.28;23.20;;;;;;;11.68;100.00;99245.97;6245983;23;20091;-84
2023/03/14 10:11:55;;;;;;;34.58;22.23;;;;;;;11.77;100.00;99252.75;6246126;23;20015;-86
2023/03/14 10:14:35;;;;;;;34.53;22.13;;;;;;;12.05;100.00;99251.78;6221210;23;20096;-89
2023/03/14 10:17:10;;;;;;;30.55;20.52;;;;;;;12.12;100.00;99253.44;6246502;23;20522;-85
2023/03/14 10:19:59;;;;;;;26.90;18.73;;;;;;;12.14;100.00;99239.94;6221673;23;20016;-92
2023/03/14 10:22:29;;;;;;;28.15;17.55;;;;;;;12.07;100.00;99244.44;6219796;23;20379;-90
2023/03/14 10:24:59;;;;;;;27.35;17.20;;;;;;;11.87;100.00;99249.72;6245911;23;20355;-86
2023/03/14 10:27:33;;;;;;;31.48;16.85;;;;;;;11.94;100.00;99255.84;6245943;23;20008;-89
2023/03/14 10:30:26;;;;;;;24.00;15.35;;;;;;;12.20;100.00;99245.25;6219935;23;20083;-87
2023/03/14 10:32:51;;;;;;;26.08;15.60;;;;;;;12.51;100.00;99222.56;6218686;23;20019;-88
2023/03/14 10:35:22;;;;;;;24.52;15.00;;;;;;;12.70;100.00;99222.53;6246440;23;20004;-86
2023/03/14 10:37:57;;;;;;;22.92;14.68;;;;;;;13.15;100.00;99222.66;6245679;23;20347;-89
2023/03/14 10:40:30;;;;;;;21.20;14.82;;;;;;;13.19;100.00;99218.56;6245602;23;20440;-85
2023/03/14 10:42:57;;;;;;;20.17;13.98;;;;;;;13.66;100.00;99211.97;6245297;23;20378;-88
2023/03/14 10:45:32;;;;;;;19.80;13.40;;;;;;;14.53;100.00;99211.97;6218864;23;20511;-91
2023/03/14 10:48:05;;;;;;;18.40;13.43;;;;;;;15.25;100.00;99215.72;6193811;23;20095;-90
2023/03/14 10:50:31;;;;;;;21.00;13.43;;;;;;;15.49;100.00;99207.63;6246884;23;20016;-91
2023/03/14 10:53:05;;;;;;;16.23;12.23;;;;;;;15.17;100.00;99202.69;6220201;23;20020;-90
2023/03/14 10:55:42;;;;;;;17.30;11.15;;;;;;;15.45;100.00;99210.94;6247474;23;20423;-89
2023/03/14 10:58:44;;;;;;;18.80;12.38;;;;;;;15.60;100.00;99203.38;6219262;23;20040;-87
2023/03/14 11:01:21;;;;;;;14.80;11.27;;;;;;;15.64;100.00;99207.25;6117715;23;20020;-86
2023/03/14 11:03:56;;;;;;;13.88;10.70;;;;;;;15.78;100.00;99211.34;6219063;23;20015;-87
2023/03/14 11:06:28;;;;;;;18.85;12.70;;;;;;;15.06;100.00;99206.91;6218544;23;20008;-89
2023/03/14 11:09:05;;;;;;;16.02;12.95;;;;;;;14.31;100.00;99198.22;6245716;23;20012;-90
2023/03/14 11:11:32;;;;;;;19.63;13.18;;;;;;;13.93;100.00;99195.63;6218184;23;20008;-87
2023/03/14 11:14:06;;;;;;;19.17;12.75;;;;;;;13.41;100.00;99190.63;6218925;23;20420;-88
2023/03/14 11:17:10;;;;;;;20.27;13.68;;;;;;;13.09;100.00;99183.63;6219062;23;20505;-87
2023/03/14 11:19:49;;;;;;;22.73;14.82;;;;;;;12.97;100.00;99188.72;6247401;23;20035;-87
2023/03/14 11:22:23;;;;;;;20.63;13.85;;;;;;;13.01;100.00;99168.66;6246278;23;20015;-89
2023/03/14 11:25:10;;;;;;;18.88;12.98;;;;;;;13.00;100.00;99159.06;6226364;23;20078;-90
2023/03/14 11:28:02;;;;;;;18.65;12.23;;;;;;;13.08;100.00;99168.66;6246298;23;20008;-92